KGMU/GMU METAR and TAF weather

Enter ICAO airport designator
Station Type Date Time Source
KGMU METAR 2019/06/16 19:53 UTC NOAA

KGMU 161953Z 25009KT 210V280 10SM FEW049 32/19 A3003 RMK AO2 SLP157 T03170189


Station Type Date Time Source
KGMU Decoded METAR 2019/06/16 19:53 UTC NOAA

GREENVILLE DOWNTOWN AIRPORT , SC, United States (KGMU) 34-51N 82-21W 315M
Jun 16, 2019 - 03:53 PM EDT / 2019.06.16 1953 UTC
Wind: from the WSW (250 degrees) at 10 MPH (9 KT) (direction variable):0
Visibility: 10 mile(s):0
Sky conditions: mostly clear
Temperature: 89.1 F (31.7 C)
Dew Point: 66.0 F (18.9 C)
Relative Humidity: 46%
Pressure (altimeter): 30.03 in. Hg (1016 hPa)
ob: KGMU 161953Z 25009KT 210V280 10SM FEW049 32/19 A3003 RMK AO2 SLP157 T03170189
cycle: 20

Station Type Date Time Source
KGMU TAF 2019/06/16 18:36 UTC NOAA

TAF KGMU 161734Z 1618/1718 22009G15KT P6SM SCT050
FM162100 22006KT P6SM SCT050 SCT150
FM170100 21005KT P6SM SCT150
FM171600 22006KT P6SM SCT050

Example: see airport list